Time;durP1;ratioP1;P1;durP2;ratioP2;P2;SDS_P1;SDS_P2;PMS_P1;PMS_P2;Temp;Humidity;BMP_temperature;BMP_pressure;BME280_temperature;BME280_humidity;BME280_pressure;Samples;Min_cycle;Max_cycle;Signal;HPM_P1;HPM_P2
2022/05/24 00:02:13;;;;;;;6.87;6.37;;;;;;;23.98;38.56;94615.97;6220598;28;103688;-61
2022/05/24 00:05:17;;;;;;;6.50;6.00;;;;;;;24.00;38.27;94613.00;6202659;28;103395;-62
2022/05/24 00:08:20;;;;;;;6.53;6.03;;;;;;;23.98;38.30;94599.94;6213060;28;102655;-60
2022/05/24 00:11:23;;;;;;;6.37;5.87;;;;;;;23.98;38.33;94593.81;6213532;28;102721;-61
2022/05/24 00:17:53;;;;;;;6.60;6.07;;;;;;;23.97;38.80;94600.25;6207777;28;102831;-60
2022/05/24 00:20:58;;;;;;;6.67;6.10;;;;;;;23.97;38.47;94592.25;6235427;28;103061;-60
2022/05/24 00:24:01;;;;;;;6.37;5.87;;;;;;;23.97;38.52;94589.56;6233145;28;103329;-60
2022/05/24 00:27:05;;;;;;;7.07;6.57;;;;;;;23.97;38.67;94576.22;6202850;28;104538;-61
2022/05/24 00:30:10;;;;;;;6.13;5.70;;;;;;;23.97;38.37;94585.00;6219921;28;102799;-60
2022/05/24 00:33:15;;;;;;;6.43;5.93;;;;;;;23.97;38.20;94590.34;6229583;28;102759;-60
2022/05/24 00:36:18;;;;;;;6.30;5.27;;;;;;;23.97;38.62;94586.91;6217872;28;102946;-61
2022/05/24 00:39:21;;;;;;;6.67;6.07;;;;;;;23.96;38.67;94591.47;6201980;28;102725;-60
2022/05/24 00:42:28;;;;;;;6.33;5.83;;;;;;;23.95;38.45;94578.44;6216620;28;102768;-60
2022/05/24 00:45:35;;;;;;;6.30;5.70;;;;;;;23.95;38.37;94579.22;6237467;28;102695;-62
2022/05/24 00:48:48;;;;;;;6.43;5.93;;;;;;;23.94;38.60;94585.66;6226277;28;102686;-62
2022/05/24 00:51:56;;;;;;;5.80;5.40;;;;;;;23.94;38.57;94587.56;6230543;28;103145;-62
2022/05/24 00:55:00;;;;;;;5.87;5.47;;;;;;;23.94;38.33;94584.88;6212851;28;102697;-60
2022/05/24 00:58:10;;;;;;;6.47;5.97;;;;;;;23.93;38.46;94589.44;6236465;28;103173;-60
2022/05/24 01:01:27;;;;;;;6.40;5.90;;;;;;;23.94;38.14;94592.91;6213300;28;103249;-60
2022/05/24 01:04:32;;;;;;;6.03;5.50;;;;;;;23.94;38.57;94595.56;6227541;28;102760;-60
2022/05/24 01:07:36;;;;;;;5.77;5.37;;;;;;;23.93;38.20;94604.72;6235802;28;102864;-60
2022/05/24 01:10:45;;;;;;;6.47;5.97;;;;;;;23.92;38.41;94601.25;6236571;28;102757;-60
2022/05/24 01:13:48;;;;;;;5.37;4.90;;;;;;;23.94;38.67;94608.94;6226030;28;102952;-60
2022/05/24 01:16:53;;;;;;;5.73;5.33;;;;;;;23.93;38.29;94602.03;6219299;28;102654;-62
2022/05/24 01:19:59;;;;;;;5.50;5.10;;;;;;;23.90;38.61;94601.59;6211568;28;102884;-60
2022/05/24 01:23:28;;;;;;;6.30;5.70;;;;;;;23.90;38.36;94598.91;6213943;28;102797;-61
2022/05/24 01:26:41;;;;;;;5.77;5.27;;;;;;;23.91;38.58;94599.69;6236301;28;102787;-62
2022/05/24 01:29:44;;;;;;;5.40;4.97;;;;;;;23.91;38.77;94610.38;6236645;28;103061;-60
2022/05/24 01:36:13;;;;;;;5.43;5.03;;;;;;;23.91;38.71;94599.69;6216156;28;102885;-60
2022/05/24 01:39:16;;;;;;;4.37;4.07;;;;;;;23.91;38.57;94594.34;6236420;28;103082;-60
2022/05/24 01:42:22;;;;;;;5.13;4.73;;;;;;;23.90;38.26;94592.78;6233604;28;102761;-60
2022/05/24 01:45:32;;;;;;;5.27;4.77;;;;;;;23.89;38.50;94586.66;6207880;28;102808;-61
2022/05/24 01:48:41;;;;;;;4.87;4.47;;;;;;;23.89;38.52;94585.88;6205321;28;103680;-61
2022/05/24 01:51:51;;;;;;;5.63;4.20;;;;;;;23.87;38.20;94583.53;6210273;28;103240;-60
2022/05/24 01:55:06;;;;;;;4.33;3.93;;;;;;;23.85;38.75;94583.06;6233403;28;102882;-60
2022/05/24 01:58:14;;;;;;;8.70;3.83;;;;;;;23.84;38.95;94588.72;6208995;28;104092;-61
2022/05/24 02:01:25;;;;;;;4.90;4.50;;;;;;;23.81;38.74;94595.50;6233047;28;102738;-60
2022/05/24 02:04:32;;;;;;;4.07;3.73;;;;;;;23.82;38.79;94598.97;6214916;28;102656;-61
2022/05/24 02:07:35;;;;;;;4.40;4.10;;;;;;;23.84;38.41;94594.84;6210704;28;103250;-60
2022/05/24 02:10:43;;;;;;;4.87;4.53;;;;;;;23.83;38.92;94609.31;6203720;28;104493;-60
2022/05/24 02:13:49;;;;;;;4.73;4.43;;;;;;;23.81;38.82;94594.72;6225013;28;103191;-61
2022/05/24 02:16:59;;;;;;;4.67;4.37;;;;;;;23.82;38.87;94601.63;6235255;28;103622;-61
2022/05/24 02:20:03;;;;;;;4.80;4.00;;;;;;;23.80;38.73;94615.34;6208177;28;102750;-62
2022/05/24 02:23:07;;;;;;;4.33;3.97;;;;;;;23.79;38.99;94621.00;6217216;28;103337;-61
2022/05/24 02:26:12;;;;;;;4.57;4.17;;;;;;;23.78;38.93;94617.56;6233582;28;102902;-61
2022/05/24 02:29:19;;;;;;;5.40;4.40;;;;;;;23.80;39.13;94601.97;6234113;28;102787;-61
2022/05/24 02:32:22;;;;;;;4.80;4.40;;;;;;;23.81;38.77;94602.75;6209607;28;102681;-60
2022/05/24 02:35:25;;;;;;;4.10;3.80;;;;;;;23.80;38.93;94588.63;6234251;28;102675;-61
2022/05/24 02:38:29;;;;;;;4.57;4.27;;;;;;;23.79;38.84;94589.72;6216093;28;102686;-60
2022/05/24 02:41:32;;;;;;;4.43;4.13;;;;;;;23.80;38.76;94599.31;6209704;28;103218;-60
2022/05/24 02:44:37;;;;;;;4.53;4.13;;;;;;;23.78;39.01;94606.09;6211853;28;104559;-60
2022/05/24 02:47:40;;;;;;;4.63;3.87;;;;;;;23.78;39.03;94622.91;6213200;28;102690;-61
2022/05/24 02:50:44;;;;;;;5.07;4.13;;;;;;;23.76;39.18;94609.09;6233691;28;102703;-62
2022/05/24 02:53:47;;;;;;;4.13;3.80;;;;;;;23.76;38.88;94613.66;6207913;28;102772;-61
2022/05/24 02:56:50;;;;;;;4.53;4.10;;;;;;;23.76;38.98;94609.09;6227936;28;102793;-61
2022/05/24 02:59:55;;;;;;;4.00;3.67;;;;;;;23.76;39.04;94614.44;6230127;28;102787;-60
2022/05/24 03:02:59;;;;;;;3.80;3.50;;;;;;;23.78;39.04;94614.09;6233393;28;102675;-60
2022/05/24 03:06:02;;;;;;;4.33;4.03;;;;;;;23.78;39.04;94617.56;6206708;28;105040;-61
2022/05/24 03:15:48;;;;;;;3.63;3.33;;;;;;;23.77;38.85;94626.69;6223172;28;102816;-62
2022/05/24 03:18:52;;;;;;;4.30;3.90;;;;;;;23.79;38.53;94624.47;6199408;28;102928;-61
2022/05/24 03:21:55;;;;;;;5.00;4.60;;;;;;;23.84;39.14;94615.44;6215162;28;103025;-60
2022/05/24 03:24:58;;;;;;;4.93;4.53;;;;;;;23.88;39.62;94621.72;6234411;28;102798;-60
2022/05/24 03:28:03;;;;;;;5.63;4.63;;;;;;;23.88;39.71;94605.69;6209129;28;103062;-60
2022/05/24 03:31:08;;;;;;;5.77;5.03;;;;;;;23.88;40.05;94617.16;6204880;28;102793;-62
2022/05/24 03:34:11;;;;;;;5.33;4.83;;;;;;;23.89;40.34;94615.28;6230599;28;102720;-57
2022/05/24 03:37:14;;;;;;;6.10;5.50;;;;;;;23.79;39.51;94621.78;6230920;28;103783;-58
2022/05/24 03:40:17;;;;;;;8.73;5.80;;;;;;;23.67;40.56;94616.38;6219355;28;102943;-58
2022/05/24 03:43:21;;;;;;;6.80;6.13;;;;;;;23.57;41.19;94622.91;6238347;28;102913;-58
2022/05/24 03:46:25;;;;;;;11.70;6.70;;;;;;;23.54;40.71;94620.09;6237922;28;102837;-58
2022/05/24 03:49:29;;;;;;;12.30;11.10;;;;;;;23.54;40.99;94623.56;6234043;28;102811;-58
2022/05/24 03:52:32;;;;;;;10.83;9.93;;;;;;;23.49;40.70;94633.63;6207747;28;102738;-59
2022/05/24 03:55:35;;;;;;;14.97;13.40;;;;;;;23.47;41.31;94627.84;6230489;28;102879;-58
2022/05/24 03:58:38;;;;;;;11.20;10.10;;;;;;;23.60;40.54;94626.81;6234007;27;103313;-60
2022/05/24 04:01:43;;;;;;;9.00;8.30;;;;;;;23.78;41.05;94627.47;6224132;27;104237;-61
2022/05/24 04:04:46;;;;;;;10.33;9.33;;;;;;;23.96;42.15;94631.56;6214519;27;103281;-60
2022/05/24 04:07:50;;;;;;;11.90;10.90;;;;;;;24.01;41.01;94625.25;6225819;28;102812;-61
2022/05/24 04:11:02;;;;;;;13.10;11.90;;;;;;;24.00;40.87;94637.84;6218844;28;102839;-60
2022/05/24 04:14:05;;;;;;;13.10;11.37;;;;;;;24.02;41.71;94651.66;6205387;27;104306;-60
2022/05/24 04:17:10;;;;;;;17.23;15.53;;;;;;;23.98;41.66;94652.59;6225886;28;103006;-60
2022/05/24 04:20:14;;;;;;;16.37;14.90;;;;;;;23.97;41.20;94651.81;6227460;28;103165;-60
2022/05/24 04:23:19;;;;;;;15.27;12.87;;;;;;;24.02;41.71;94645.53;6224354;28;103511;-59
2022/05/24 04:26:22;;;;;;;13.60;10.37;;;;;;;24.01;41.77;94647.41;6205959;28;103494;-59
2022/05/24 04:29:25;;;;;;;22.03;10.40;;;;;;;23.92;42.86;94645.91;6227886;28;102931;-58
2022/05/24 04:32:30;;;;;;;13.00;9.43;;;;;;;23.96;42.76;94636.13;6223719;28;103477;-61
2022/05/24 04:35:33;;;;;;;14.13;12.50;;;;;;;24.02;42.73;94637.50;6221004;28;104021;-60
2022/05/24 04:38:36;;;;;;;26.10;19.63;;;;;;;23.84;42.25;94642.97;6232518;28;103986;-59
2022/05/24 04:45:03;;;;;;;17.17;15.47;;;;;;;23.73;42.67;94649.81;6241592;28;103086;-59
2022/05/24 04:48:08;;;;;;;22.00;19.90;;;;;;;23.79;42.24;94639.72;6232508;27;103505;-61
2022/05/24 04:51:11;;;;;;;28.17;25.57;;;;;;;23.81;42.24;94635.59;6241579;28;102786;-60
2022/05/24 04:54:14;;;;;;;18.47;16.77;;;;;;;23.81;41.75;94634.81;6241744;28;103220;-61
2022/05/24 04:57:18;;;;;;;18.00;16.50;;;;;;;23.85;42.42;94638.38;6226951;28;102726;-59
2022/05/24 05:00:21;;;;;;;19.20;17.40;;;;;;;23.87;42.45;94645.00;6206990;28;102871;-61
2022/05/24 05:03:26;;;;;;;24.77;22.37;;;;;;;23.89;41.92;94645.44;6216634;28;102744;-61
2022/05/24 05:06:29;;;;;;;21.53;19.50;;;;;;;23.90;42.17;94655.03;6217101;28;102659;-61
2022/05/24 05:09:35;;;;;;;21.43;19.43;;;;;;;23.86;42.05;94662.16;6216780;28;102787;-61
2022/05/24 05:12:39;;;;;;;16.57;14.87;;;;;;;23.84;42.81;94669.69;6208887;28;103705;-61
2022/05/24 05:15:42;;;;;;;16.00;14.60;;;;;;;23.86;41.96;94674.72;6221001;28;103049;-61
2022/05/24 05:18:47;;;;;;;15.80;14.20;;;;;;;23.87;42.29;94674.41;6232290;28;102855;-60
2022/05/24 05:21:50;;;;;;;15.27;13.67;;;;;;;23.90;42.53;94676.41;6212493;28;103539;-61
2022/05/24 05:24:53;;;;;;;14.67;12.27;;;;;;;23.92;42.15;94676.09;6212293;28;103607;-61
2022/05/24 05:27:56;;;;;;;14.10;12.90;;;;;;;23.90;42.20;94683.66;6218668;28;102785;-59
2022/05/24 05:31:17;;;;;;;14.63;13.23;;;;;;;23.85;42.57;94681.94;6215442;28;102729;-60
2022/05/24 05:34:23;;;;;;;14.47;11.57;;;;;;;23.63;42.02;94684.13;6205891;28;102838;-61
2022/05/24 05:37:28;;;;;;;11.67;10.67;;;;;;;23.73;42.21;94687.22;6216543;28;103017;-59
2022/05/24 05:40:31;;;;;;;12.00;11.00;;;;;;;23.90;43.08;94694.34;6216777;28;102789;-64
2022/05/24 05:43:34;;;;;;;13.67;12.27;;;;;;;23.99;41.87;94679.00;6217943;28;102853;-60
2022/05/24 05:46:40;;;;;;;13.33;12.13;;;;;;;24.09;42.57;94691.22;6206700;28;102893;-60
2022/05/24 05:49:45;;;;;;;12.63;11.60;;;;;;;24.12;42.65;94685.22;6216030;28;102808;-60
2022/05/24 05:52:49;;;;;;;13.60;12.40;;;;;;;24.19;43.36;94685.47;6216407;28;102781;-60
2022/05/24 05:55:53;;;;;;;12.33;11.23;;;;;;;24.23;43.53;94697.09;6210847;28;102844;-61
2022/05/24 05:58:56;;;;;;;13.07;11.87;;;;;;;24.31;42.85;94698.13;6211557;28;102752;-60
2022/05/24 06:02:00;;;;;;;15.80;11.20;;;;;;;24.28;42.94;94694.22;6215383;28;102835;-60
2022/05/24 06:05:07;;;;;;;9.00;8.20;;;;;;;24.28;42.88;94702.25;6216252;28;103310;-60
2022/05/24 06:08:10;;;;;;;10.67;9.63;;;;;;;24.31;43.02;94704.25;6205689;28;102781;-60
2022/05/24 06:11:13;;;;;;;10.87;9.70;;;;;;;24.32;41.84;94711.16;6216350;28;103106;-61
2022/05/24 06:14:16;;;;;;;11.07;9.97;;;;;;;24.34;42.25;94708.16;6216975;28;102783;-61
2022/05/24 06:17:44;;;;;;;11.00;10.03;;;;;;;24.30;41.97;94718.72;6214697;28;102665;-61
2022/05/24 06:20:49;;;;;;;10.70;9.80;;;;;;;24.29;41.44;94713.72;6218020;28;102781;-61
2022/05/24 06:23:52;;;;;;;11.70;10.60;;;;;;;24.32;41.91;94715.72;6233375;28;102861;-60
2022/05/24 06:26:56;;;;;;;11.37;10.37;;;;;;;24.33;41.58;94722.66;6235392;28;102696;-60
2022/05/24 06:29:59;;;;;;;11.20;10.20;;;;;;;24.35;42.37;94718.53;6228197;28;103315;-60
2022/05/24 06:33:02;;;;;;;10.33;9.43;;;;;;;24.36;42.03;94712.09;6227430;28;104105;-61
2022/05/24 06:36:07;;;;;;;14.33;10.73;;;;;;;24.35;41.35;94707.81;6232722;28;102895;-60
2022/05/24 06:39:11;;;;;;;10.07;9.17;;;;;;;24.36;41.56;94701.41;6232157;28;102972;-61
2022/05/24 06:42:14;;;;;;;10.13;9.23;;;;;;;24.38;41.59;94695.72;6223153;28;102900;-61
2022/05/24 06:45:18;;;;;;;11.20;9.87;;;;;;;24.37;41.08;94692.25;6234738;28;102939;-61
2022/05/24 06:48:21;;;;;;;10.10;9.20;;;;;;;24.39;41.02;94684.69;6234657;28;103303;-61
2022/05/24 06:51:25;;;;;;;9.50;8.80;;;;;;;24.43;41.22;94684.81;6234527;28;102723;-60
2022/05/24 06:54:29;;;;;;;9.00;8.27;;;;;;;24.48;41.45;94685.38;6225093;27;104619;-61
2022/05/24 06:57:32;;;;;;;8.60;7.73;;;;;;;24.51;41.71;94681.25;6234338;28;102774;-61
2022/05/24 07:03:56;;;;;;;10.93;9.93;;;;;;;24.60;41.39;94675.84;6204551;28;103246;-60
2022/05/24 07:07:00;;;;;;;9.60;8.80;;;;;;;24.62;41.02;94682.41;6207472;28;102698;-60
2022/05/24 07:10:07;;;;;;;10.70;9.60;;;;;;;24.63;41.33;94683.97;6214357;28;103289;-60
2022/05/24 07:13:13;;;;;;;10.23;9.23;;;;;;;24.68;41.11;94680.31;6213717;28;102693;-60
2022/05/24 07:16:16;;;;;;;11.43;9.00;;;;;;;24.69;40.98;94681.88;6202392;28;102792;-60
2022/05/24 07:19:19;;;;;;;9.97;9.10;;;;;;;24.63;41.03;94683.19;6227045;28;102754;-60
2022/05/24 07:22:24;;;;;;;9.77;9.00;;;;;;;24.57;40.94;94693.31;6238104;28;102789;-60
2022/05/24 07:25:27;;;;;;;10.73;9.50;;;;;;;24.57;40.42;94689.88;6234771;28;103354;-60
2022/05/24 07:28:30;;;;;;;9.90;9.10;;;;;;;24.63;40.42;94693.88;6204076;28;103081;-60
2022/05/24 07:31:33;;;;;;;10.93;9.43;;;;;;;24.62;40.66;94698.47;6212594;28;103195;-61
2022/05/24 07:34:38;;;;;;;11.17;10.23;;;;;;;24.64;40.49;94690.09;6213787;28;102631;-60
2022/05/24 07:37:42;;;;;;;11.20;10.20;;;;;;;24.60;40.36;94683.84;6210214;28;102870;-62
2022/05/24 07:47:29;;;;;;;13.60;12.30;;;;;;;24.83;40.41;94685.03;6212637;28;102677;-61
2022/05/24 07:50:32;;;;;;;14.53;13.03;;;;;;;24.87;40.43;94680.63;6203396;28;104038;-62
2022/05/24 07:53:37;;;;;;;17.17;15.67;;;;;;;24.93;40.45;94671.25;6212735;28;103195;-60
2022/05/24 07:56:41;;;;;;;14.20;12.80;;;;;;;24.93;41.16;94671.25;6213883;28;102765;-61
2022/05/24 07:59:47;;;;;;;20.10;18.10;;;;;;;24.63;42.12;94669.81;6212084;28;102851;-61
2022/05/24 08:02:51;;;;;;;23.63;20.33;;;;;;;24.84;42.24;94672.44;6202653;28;102689;-60
2022/05/24 08:05:54;;;;;;;22.47;19.13;;;;;;;24.94;41.76;94675.47;6212391;28;103424;-61
2022/05/24 08:08:58;;;;;;;15.77;14.33;;;;;;;25.00;41.77;94670.69;6212287;28;102706;-61
2022/05/24 08:12:01;;;;;;;15.60;14.10;;;;;;;25.07;41.99;94666.34;6208906;28;103756;-61
2022/05/24 08:15:06;;;;;;;17.20;15.60;;;;;;;25.03;42.08;94660.13;6207378;28;103156;-60
2022/05/24 08:18:09;;;;;;;17.50;15.80;;;;;;;25.04;43.19;94671.59;6215130;28;103003;-60
2022/05/24 08:21:13;;;;;;;15.67;14.10;;;;;;;25.00;43.62;94678.72;6237276;28;102701;-61
2022/05/24 08:24:17;;;;;;;16.10;14.50;;;;;;;25.01;43.77;94678.38;6227990;28;103182;-60
2022/05/24 08:27:20;;;;;;;15.10;13.67;;;;;;;25.04;43.86;94672.38;6237716;28;103194;-60
2022/05/24 08:30:24;;;;;;;14.10;12.60;;;;;;;25.01;43.60;94681.06;6236132;28;102767;-61
2022/05/24 08:33:28;;;;;;;11.90;11.00;;;;;;;25.06;43.17;94672.81;6232602;28;103058;-62
2022/05/24 08:36:31;;;;;;;13.50;12.23;;;;;;;25.07;43.22;94677.06;6203004;28;103210;-60
2022/05/24 08:39:36;;;;;;;12.83;11.77;;;;;;;25.11;43.22;94673.72;6215482;28;102704;-59
2022/05/24 08:42:51;;;;;;;14.33;13.07;;;;;;;25.16;42.84;94676.16;6216943;28;102783;-59
2022/05/24 08:49:18;;;;;;;12.80;11.60;;;;;;;25.17;42.42;94669.69;6212213;28;103225;-59
2022/05/24 08:52:24;;;;;;;12.40;11.30;;;;;;;25.24;42.62;94675.28;6216713;28;103345;-60
2022/05/24 08:55:29;;;;;;;12.63;11.53;;;;;;;25.21;42.21;94670.59;6224084;28;103876;-60
2022/05/24 08:58:35;;;;;;;11.33;10.43;;;;;;;25.27;42.78;94677.28;6224837;27;103105;-61
2022/05/24 09:01:42;;;;;;;11.17;8.83;;;;;;;25.23;43.06;94679.88;6227889;28;103330;-60
2022/05/24 09:04:45;;;;;;;9.37;8.57;;;;;;;25.25;42.71;94674.16;6217081;28;102742;-60
2022/05/24 09:08:09;;;;;;;9.80;8.90;;;;;;;25.22;42.74;94677.53;6215254;28;102707;-61
2022/05/24 09:11:22;;;;;;;9.63;8.67;;;;;;;25.23;42.50;94673.72;6206524;28;103069;-61
2022/05/24 09:14:33;;;;;;;10.30;9.50;;;;;;;25.28;42.39;94676.97;6215993;28;102659;-60
2022/05/24 09:17:59;;;;;;;13.40;12.00;;;;;;;25.30;42.58;94674.72;6216653;28;102624;-61
2022/05/24 09:21:02;;;;;;;11.40;10.27;;;;;;;25.33;42.20;94667.91;6207029;28;103961;-61
2022/05/24 09:24:23;;;;;;;11.20;10.30;;;;;;;25.33;42.49;94657.19;6215821;28;102718;-58
2022/05/24 09:27:30;;;;;;;12.00;10.20;;;;;;;25.32;42.21;94661.00;6215561;28;102745;-61
2022/05/24 09:30:42;;;;;;;11.20;10.10;;;;;;;25.29;42.52;94656.31;6214018;28;103285;-61
2022/05/24 09:33:46;;;;;;;11.13;10.10;;;;;;;25.35;43.01;94655.78;6206924;28;103914;-60
2022/05/24 09:36:56;;;;;;;8.10;7.07;;;;;;;25.26;42.72;94640.91;6215660;28;102735;-59
2022/05/24 09:40:01;;;;;;;8.73;6.40;;;;;;;25.26;42.61;94652.41;6217368;28;102728;-60
2022/05/24 09:43:23;;;;;;;9.30;7.43;;;;;;;25.32;42.79;94658.31;6213750;28;102727;-59
2022/05/24 09:46:28;;;;;;;7.40;6.70;;;;;;;25.41;42.83;94653.66;6216336;28;102907;-59
2022/05/24 09:49:35;;;;;;;8.80;8.10;;;;;;;25.42;43.34;94651.75;6217795;28;103015;-59
2022/05/24 09:52:38;;;;;;;8.10;7.50;;;;;;;25.37;42.89;94647.38;6216322;28;102680;-60
2022/05/24 09:55:46;;;;;;;7.43;6.83;;;;;;;25.34;42.80;94645.38;6207221;28;102767;-59
2022/05/24 09:58:55;;;;;;;8.23;7.43;;;;;;;25.27;43.02;94637.91;6218115;28;103046;-60
2022/05/24 10:01:59;;;;;;;8.50;7.37;;;;;;;25.26;42.67;94643.59;6215594;28;102679;-59
2022/05/24 10:05:03;;;;;;;8.30;7.47;;;;;;;25.26;42.84;94643.59;6226246;28;102743;-61
2022/05/24 10:08:15;;;;;;;9.90;7.90;;;;;;;25.25;42.87;94642.03;6215405;28;104501;-62
2022/05/24 10:11:29;;;;;;;9.20;7.23;;;;;;;25.26;42.99;94638.25;6224595;28;103103;-59
2022/05/24 10:14:40;;;;;;;8.80;6.70;;;;;;;25.24;42.98;94643.16;6225813;28;103209;-61
2022/05/24 10:17:55;;;;;;;8.80;8.10;;;;;;;25.25;42.83;94636.69;6206055;28;103621;-61
2022/05/24 10:21:10;;;;;;;7.67;6.97;;;;;;;25.22;42.95;94651.53;6217523;28;103273;-61
2022/05/24 10:24:30;;;;;;;7.83;7.17;;;;;;;25.19;43.32;94640.69;6218870;28;102778;-61
2022/05/24 10:27:50;;;;;;;7.47;6.87;;;;;;;25.20;43.22;94632.31;6234438;28;102801;-61
2022/05/24 10:31:04;;;;;;;7.93;7.23;;;;;;;25.21;43.22;94641.94;6220541;27;104103;-61
2022/05/24 10:41:17;;;;;;;9.33;8.53;;;;;;;25.20;43.66;94631.53;6226633;27;103590;-61
2022/05/24 10:44:25;;;;;;;8.23;7.53;;;;;;;25.17;43.59;94618.81;6220378;28;102729;-62
2022/05/24 10:47:37;;;;;;;9.17;8.23;;;;;;;25.16;43.65;94610.00;6215032;28;102785;-61
2022/05/24 10:50:44;;;;;;;8.60;7.80;;;;;;;25.21;43.93;94609.00;6214349;28;103181;-61
2022/05/24 10:53:53;;;;;;;10.73;8.90;;;;;;;25.19;44.06;94605.88;6214227;28;103960;-61
2022/05/24 10:57:02;;;;;;;9.70;8.70;;;;;;;25.19;44.09;94603.19;6221129;28;103313;-61
2022/05/24 11:00:12;;;;;;;10.03;8.70;;;;;;;25.19;44.49;94611.22;6215756;28;103327;-62
2022/05/24 11:03:19;;;;;;;9.43;8.20;;;;;;;25.17;44.02;94616.13;6205880;28;104868;-61
2022/05/24 11:06:29;;;;;;;9.20;8.27;;;;;;;25.10;44.07;94608.69;6218603;28;104223;-61
2022/05/24 11:09:35;;;;;;;7.40;6.90;;;;;;;25.12;43.99;94613.69;6217946;28;102795;-62
2022/05/24 11:12:44;;;;;;;8.03;7.40;;;;;;;25.11;43.83;94601.41;6220508;28;102964;-63
2022/05/24 11:15:52;;;;;;;8.40;7.70;;;;;;;25.13;43.63;94599.19;6216390;28;104844;-61
2022/05/24 11:19:03;;;;;;;7.90;7.30;;;;;;;25.11;43.58;94585.34;6229121;28;103348;-61
2022/05/24 11:22:17;;;;;;;9.90;9.10;;;;;;;25.09;43.75;94577.66;6227183;28;102782;-61
2022/05/24 11:25:25;;;;;;;10.07;9.10;;;;;;;25.12;44.22;94573.53;6212046;27;104803;-61
2022/05/24 11:28:33;;;;;;;11.53;9.87;;;;;;;25.12;44.38;94566.28;6225395;28;103338;-61
2022/05/24 11:31:41;;;;;;;12.10;10.20;;;;;;;25.13;44.88;94551.75;6220135;28;103398;-61
2022/05/24 11:34:57;;;;;;;11.10;10.10;;;;;;;25.14;44.74;94558.69;6212838;28;104464;-59
2022/05/24 11:38:12;;;;;;;9.97;9.27;;;;;;;25.18;45.14;94548.06;6223370;28;103512;-59
2022/05/24 11:41:28;;;;;;;10.00;9.07;;;;;;;25.18;45.25;94548.06;6232311;28;102678;-59
2022/05/24 11:44:34;;;;;;;9.90;9.10;;;;;;;25.20;44.78;94543.16;6223371;28;103046;-60
2022/05/24 11:47:56;;;;;;;11.10;10.10;;;;;;;25.20;44.98;94540.47;6221718;28;103278;-60
2022/05/24 11:51:32;;;;;;;12.00;10.77;;;;;;;25.20;44.92;94540.47;6235531;27;102710;-58
2022/05/24 11:55:01;;;;;;;11.57;10.47;;;;;;;25.22;45.22;94538.25;6232660;28;103304;-59
2022/05/24 11:58:07;;;;;;;10.97;10.00;;;;;;;25.22;45.10;94522.19;6172295;28;103119;-65
2022/05/24 12:01:31;;;;;;;12.33;11.20;;;;;;;25.20;45.02;94511.78;6214229;27;102862;-60
2022/05/24 12:08:30;;;;;;;11.40;10.30;;;;;;;25.17;44.78;94509.81;6222483;28;102827;-59
2022/05/24 12:11:36;;;;;;;11.57;10.40;;;;;;;25.19;44.77;94498.75;6212376;27;103209;-57
2022/05/24 12:14:40;;;;;;;11.10;10.20;;;;;;;25.21;44.90;94493.84;6224927;28;103925;-58
2022/05/24 12:17:44;;;;;;;9.77;9.07;;;;;;;25.21;44.80;94504.56;6237521;28;103175;-58
2022/05/24 12:20:58;;;;;;;10.93;9.77;;;;;;;25.22;44.76;94496.19;6223726;28;102737;-58
2022/05/24 12:24:47;;;;;;;11.20;10.23;;;;;;;25.24;44.92;94495.84;6209810;27;103248;-58
2022/05/24 12:27:52;;;;;;;10.23;9.33;;;;;;;25.28;44.73;94499.41;6221290;28;103303;-59
2022/05/24 12:30:58;;;;;;;9.90;9.00;;;;;;;25.26;44.48;94496.28;6236259;28;102753;-58
2022/05/24 12:34:04;;;;;;;10.33;9.53;;;;;;;25.27;44.58;94493.28;6213037;28;103337;-58
2022/05/24 12:37:20;;;;;;;10.20;9.40;;;;;;;25.28;44.91;94494.81;6220306;27;102900;-58
2022/05/24 12:40:25;;;;;;;9.23;8.53;;;;;;;25.28;44.94;94491.38;6220211;28;102959;-59
2022/05/24 12:43:30;;;;;;;9.80;9.00;;;;;;;25.29;44.80;94490.25;6215436;28;102779;-63
2022/05/24 12:46:36;;;;;;;10.27;9.43;;;;;;;25.29;44.90;94484.91;6214390;28;103140;-59
2022/05/24 12:49:54;;;;;;;12.77;11.63;;;;;;;25.34;44.46;94481.97;6220343;28;102754;-58
2022/05/24 12:53:02;;;;;;;14.03;12.73;;;;;;;25.31;44.90;94488.78;6230389;28;102766;-58
2022/05/24 12:56:09;;;;;;;17.57;16.00;;;;;;;25.35;44.67;94489.69;6218306;28;102920;-58
2022/05/24 12:59:16;;;;;;;17.10;15.60;;;;;;;25.34;45.04;94485.44;6207862;28;102809;-58
2022/05/24 13:02:30;;;;;;;21.23;18.97;;;;;;;25.31;44.69;94493.38;6209606;28;104474;-59
2022/05/24 13:05:39;;;;;;;20.00;18.10;;;;;;;25.33;44.81;94491.91;6208814;28;103203;-59
2022/05/24 13:08:43;;;;;;;19.20;17.53;;;;;;;25.32;44.64;94487.66;6208301;27;103539;-59
2022/05/24 13:11:49;;;;;;;18.47;16.97;;;;;;;25.36;44.77;94491.25;6223075;28;102922;-58
2022/05/24 13:14:59;;;;;;;16.70;15.40;;;;;;;25.36;44.67;94495.81;6213393;28;103108;-59
2022/05/24 13:18:09;;;;;;;16.40;14.93;;;;;;;25.37;45.03;94487.47;6222325;28;102704;-59
2022/05/24 13:21:17;;;;;;;16.27;13.83;;;;;;;25.36;44.80;94480.53;6202109;28;102768;-60
2022/05/24 13:24:20;;;;;;;16.50;15.10;;;;;;;25.35;44.57;94489.69;6222161;28;103328;-59
2022/05/24 13:27:25;;;;;;;15.70;14.20;;;;;;;25.35;44.80;94494.28;6228494;28;103284;-59
2022/05/24 13:34:15;;;;;;;14.80;13.37;;;;;;;25.40;44.89;94486.00;6197236;27;104471;-59
2022/05/24 13:37:19;;;;;;;13.50;12.10;;;;;;;25.37;44.83;94481.31;6226529;28;103962;-61
2022/05/24 13:40:36;;;;;;;11.17;10.27;;;;;;;25.45;45.31;94471.59;6226264;28;102804;-60
2022/05/24 13:43:42;;;;;;;11.30;10.40;;;;;;;25.48;45.13;94474.34;6221348;27;104306;-61
2022/05/24 13:46:56;;;;;;;10.67;9.77;;;;;;;25.48;45.30;94471.69;6217400;28;102960;-62
2022/05/24 13:50:18;;;;;;;11.73;10.63;;;;;;;25.50;44.55;94472.13;6222605;28;102850;-59
2022/05/24 13:53:35;;;;;;;10.97;9.80;;;;;;;25.48;44.86;94477.03;6210458;28;103867;-59
2022/05/24 13:56:47;;;;;;;12.07;10.10;;;;;;;25.40;44.48;94469.94;6206756;27;102847;-60
2022/05/24 14:00:03;;;;;;;10.30;9.40;;;;;;;25.35;44.69;94470.94;6221746;28;102822;-60
2022/05/24 14:03:20;;;;;;;10.00;9.07;;;;;;;25.37;44.89;94463.38;6215408;28;103947;-60
2022/05/24 14:06:27;;;;;;;10.40;9.40;;;;;;;25.39;45.42;94463.03;6201060;28;103755;-60
2022/05/24 14:09:31;;;;;;;10.07;9.13;;;;;;;25.34;44.84;94469.34;6218151;28;103475;-60
2022/05/24 14:12:34;;;;;;;13.97;9.60;;;;;;;25.36;44.97;94469.03;6219195;28;104546;-61
2022/05/24 14:15:39;;;;;;;9.67;8.87;;;;;;;25.37;45.15;94471.41;6228323;28;103074;-59
2022/05/24 14:18:44;;;;;;;10.20;9.20;;;;;;;25.40;45.43;94469.16;6208219;28;104374;-61
2022/05/24 14:21:50;;;;;;;11.40;9.20;;;;;;;25.42;46.22;94464.25;6217771;28;103087;-60
2022/05/24 14:24:53;;;;;;;9.00;8.30;;;;;;;25.40;45.96;94469.16;6213993;28;103230;-60
2022/05/24 14:27:56;;;;;;;9.90;8.90;;;;;;;25.38;45.68;94472.97;6228133;28;103312;-62
2022/05/24 14:31:03;;;;;;;8.77;7.87;;;;;;;25.39;45.73;94473.75;6223923;27;103664;-64
2022/05/24 14:34:12;;;;;;;11.67;8.83;;;;;;;25.39;45.40;94471.06;6218376;28;103174;-63
2022/05/24 14:37:16;;;;;;;9.13;8.27;;;;;;;25.39;45.91;94468.38;6228348;28;102756;-63
2022/05/24 14:40:20;;;;;;;10.27;9.07;;;;;;;25.38;45.50;94461.47;6245455;28;103119;-65
2022/05/24 14:43:27;;;;;;;9.80;8.80;;;;;;;25.43;45.46;94474.63;6224995;27;103220;-63
2022/05/24 14:46:34;;;;;;;10.87;9.80;;;;;;;25.45;45.84;94471.59;6230885;28;102728;-64
2022/05/24 14:49:39;;;;;;;11.77;9.67;;;;;;;25.45;46.59;94468.91;6238915;28;102757;-64
2022/05/24 14:52:43;;;;;;;9.60;8.50;;;;;;;25.43;46.02;94469.25;6227708;27;103327;-61
2022/05/24 14:55:47;;;;;;;9.83;8.93;;;;;;;25.48;46.26;94473.59;6229136;28;102944;-62
2022/05/24 14:58:50;;;;;;;11.37;9.27;;;;;;;25.49;46.81;94473.25;6242119;28;102666;-62
2022/05/24 15:01:53;;;;;;;11.90;9.97;;;;;;;25.50;46.61;94474.78;6246465;28;103072;-65
2022/05/24 15:04:58;;;;;;;10.10;9.10;;;;;;;25.49;46.56;94475.13;6224929;27;105514;-67